| time (UTC) | temp C | wind direction | speed KPH | gust KPH | rain 1hr cm | rain 24hr cm | rain mn cm | humidity % | barometer mb |
| 20260903001050 | 33 | 0.0 | 0.0 | 0.00 | 0.00 | 0.00 | 47 | 1067.6 | |
| 20260902235045 | 33 | 0.0 | 0.0 | 0.00 | 0.00 | 0.00 | 46 | 1067.7 | |
| 20260902233040 | 33 | 0.0 | 0.0 | 0.00 | 0.00 | 0.00 | 46 | 1067.6 | |
| 20260902231035 | 33 | 0.0 | 0.0 | 0.00 | 0.00 | 0.00 | 46 | 1067.8 | |
| 20260902225030 | 33 | 0.0 | 0.0 | 0.00 | 0.00 | 0.00 | 46 | 1067.9 | |
| 20260902223025 | 33 | 0.0 | 0.0 | 0.00 | 0.00 | 0.00 | 46 | 1067.8 | |
| 20260902221020 | 33 | 0.0 | 0.0 | 0.00 | 0.00 | 0.00 | 46 | 1068.0 | |
| 20260902215016 | 33 | 0.0 | 0.0 | 0.00 | 0.00 | 0.00 | 46 | 1068.0 | |
| 20260902213011 | 33 | 0.0 | 0.0 | 0.00 | 0.00 | 0.00 | 46 | 1068.0 | |
| 20260902180911 | 33 | 0.0 | 0.0 | 0.00 | 0.00 | 0.00 | 46 | 1067.6 | |
| 20260902174906 | 33 | 0.0 | 0.0 | 0.00 | 0.00 | 0.00 | 46 | 1067.4 | |
| 20260902172901 | 33 | 0.0 | 0.0 | 0.00 | 0.00 | 0.00 | 46 | 1067.2 | |
| 20260902170856 | 33 | 0.0 | 0.0 | 0.00 | 0.00 | 0.00 | 45 | 1067.2 | |
| 20260902164852 | 34 | 0.0 | 0.0 | 0.00 | 0.00 | 0.00 | 45 | 1067.4 | |
| 20260902160842 | 32 | 0.0 | 0.0 | 0.00 | 0.00 | 0.00 | 49 | 1067.5 | |
| 20260902154837 | 35 | 0.0 | 0.0 | 0.00 | 0.00 | 0.00 | 43 | 1067.5 | |
| 20260902152832 | 32 | 0.0 | 0.0 | 0.00 | 0.00 | 0.00 | 47 | 1067.4 | |
| 20260902151856 | 32 | 0.0 | 0.0 | 0.00 | 0.00 | 0.00 | 46 | 1067.5 | |
| 20260902145407 | 32 | 0.0 | 0.0 | 0.00 | 0.00 | 0.00 | 52 | 1067.6 | |
| 20260902145151 | 32 | 0.0 | 0.0 | 0.00 | 0.00 | 0.00 | 51 | 1067.6 | |
| 20260902145051 | 32 | 0.0 | 0.0 | 0.00 | 0.00 | 0.00 | 52 | 1067.6 | |
| 20260902144830 | 32 | 0.0 | 0.0 | 0.00 | 0.00 | 0.00 | 52 | 1067.6 | |
| 20260902144736 | 32 | 0.0 | 0.0 | 0.00 | 0.00 | 0.00 | 53 | 1067.6 | |
| 20260902144709 | 32 | 0.0 | 0.0 | 0.00 | 0.00 | 0.00 | 54 | 1067.5 | |
| 20260902144539 | 32 | 0.0 | 0.0 | 0.00 | 0.00 | 0.00 | 54 | 1067.5 | |
| 20260902144438 | 32 | 0.0 | 0.0 | 0.00 | 0.00 | 0.00 | 54 | 1067.5 | |
| 20260902144306 | 32 | 0.0 | 0.0 | 0.00 | 0.00 | 0.00 | 54 | 1067.6 | |
| 20260902144224 | 32 | 0.0 | 0.0 | 0.00 | 0.00 | 0.00 | 54 | 1067.6 | |
| 20260902143639 | 31 | 0.0 | 0.0 | 0.00 | 0.00 | 0.00 | 54 | 1067.6 | |
| 20260902143546 | 31 | 0.0 | 0.0 | 0.00 | 0.00 | 0.00 | 55 | 1067.6 | |
| 20260902143413 | 31 | 0.0 | 0.0 | 0.00 | 0.00 | 0.00 | 56 | 1067.5 | |
| 20260902143312 | 31 | 0.0 | 0.0 | 0.00 | 0.00 | 0.00 | 56 | 1067.6 | |
| 20260902143153 | 31 | 0.0 | 0.0 | 0.00 | 0.00 | 0.00 | 55 | 1067.6 | |
| 20260902143104 | 31 | 0.0 | 0.0 | 0.00 | 0.00 | 0.00 | 55 | 1067.7 | |
| 20260902143030 | 31 | 0.0 | 0.0 | 0.00 | 0.00 | 0.00 | 55 | 1067.6 | |
| 20260902143021 | 31 | 0.0 | 0.0 | 0.00 | 0.00 | 0.00 | 55 | 1067.7 | |
| 20260902142944 | 31 | 0.0 | 0.0 | 0.00 | 0.00 | 0.00 | 54 | 1067.7 | |
| 20260902142800 | 31 | 0.0 | 0.0 | 0.00 | 0.00 | 0.00 | 55 | 1067.7 | |
| 20260902142329 | 31 | 0.0 | 0.0 | 0.00 | 0.00 | 0.00 | 56 | 1067.8 | |
| 20260902141825 | 31 | 0.0 | 0.0 | 0.00 | 0.00 | 0.00 | 57 | 1067.8 | |
| 20260902140415 | 31 | 0.0 | 0.0 | 0.00 | 0.00 | 0.00 | 56 | 1067.8 | |
| 20260902134412 | 31 | 0.0 | 0.0 | 0.00 | 0.00 | 0.00 | 56 | 1068.0 | |
| 20260902132408 | 31 | 0.0 | 0.0 | 0.00 | 0.00 | 0.00 | 57 | 1068.0 | |
| 20260902130404 | 31 | 0.0 | 0.0 | 0.00 | 0.00 | 0.00 | 57 | 1068.3 | |
| 20260902124400 | 31 | 0.0 | 0.0 | 0.00 | 0.00 | 0.00 | 57 | 1068.3 | |
| 20260902122357 | 31 | 0.0 | 0.0 | 0.00 | 0.00 | 0.00 | 57 | 1068.5 | |
| 20260902120353 | 31 | 0.0 | 0.0 | 0.00 | 0.00 | 0.00 | 57 | 1068.7 | |
| 20260902114350 | 31 | 0.0 | 0.0 | 0.00 | 0.00 | 0.00 | 57 | 1068.7 | |
| 20260902112346 | 31 | 0.0 | 0.0 | 0.00 | 0.00 | 0.00 | 58 | 1068.9 | |
| 20260902110342 | 31 | 0.0 | 0.0 | 0.00 | 0.00 | 0.00 | 58 | 1069.0 | |
| 20260902104339 | 30 | 0.0 | 0.0 | 0.00 | 0.00 | 0.00 | 58 | 1069.2 | |
| 20260902102335 | 30 | 0.0 | 0.0 | 0.00 | 0.00 | 0.00 | 58 | 1069.0 | |
| 20260902100331 | 30 | 0.0 | 0.0 | 0.00 | 0.00 | 0.00 | 58 | 1069.2 | |
| 20260902094328 | 30 | 0.0 | 0.0 | 0.00 | 0.00 | 0.00 | 58 | 1069.2 | |
| 20260902092324 | 30 | 0.0 | 0.0 | 0.00 | 0.00 | 0.00 | 58 | 1069.3 | |
| 20260902090320 | 30 | 0.0 | 0.0 | 0.00 | 0.00 | 0.00 | 58 | 1069.1 | |
| 20260902084317 | 30 | 0.0 | 0.0 | 0.00 | 0.00 | 0.00 | 58 | 1068.9 | |
| 20260902082313 | 30 | 0.0 | 0.0 | 0.00 | 0.00 | 0.00 | 57 | 1068.9 | |
| 20260902080309 | 30 | 0.0 | 0.0 | 0.00 | 0.00 | 0.00 | 57 | 1068.9 | |
| 20260902074306 | 30 | 0.0 | 0.0 | 0.00 | 0.00 | 0.00 | 57 | 1068.3 | |
| 20260902072308 | 30 | 0.0 | 0.0 | 0.00 | 0.00 | 0.00 | 56 | 1068.3 | |
| 20260902070258 | 30 | 0.0 | 0.0 | 0.00 | 0.00 | 0.00 | 56 | 1068.1 | |
| 20260902064255 | 30 | 0.0 | 0.0 | 0.00 | 0.00 | 0.00 | 56 | 1068.0 | |
| 20260902062251 | 30 | 0.0 | 0.0 | 0.00 | 0.00 | 0.00 | 56 | 1068.1 | |
| 20260902060247 | 30 | 0.0 | 0.0 | 0.00 | 0.00 | 0.00 | 54 | 1068.1 | |
| 20260902054244 | 30 | 0.0 | 0.0 | 0.00 | 0.00 | 0.00 | 54 | 1068.2 | |
| 20260902052240 | 30 | 0.0 | 0.0 | 0.00 | 0.00 | 0.00 | 54 | 1068.2 | |
| 20260902050236 | 30 | 0.0 | 0.0 | 0.00 | 0.00 | 0.00 | 54 | 1068.2 | |
| 20260902044233 | 30 | 0.0 | 0.0 | 0.00 | 0.00 | 0.00 | 54 | 1068.2 | |
| 20260902042229 | 30 | 0.0 | 0.0 | 0.00 | 0.00 | 0.00 | 53 | 1068.2 | |
| 20260902040225 | 31 | 0.0 | 0.0 | 0.00 | 0.00 | 0.00 | 53 | 1068.1 | |
| 20260902034222 | 31 | 0.0 | 0.0 | 0.00 | 0.00 | 0.00 | 53 | 1068.1 | |
| 20260902032218 | 31 | 0.0 | 0.0 | 0.00 | 0.00 | 0.00 | 53 | 1068.1 | |
| 20260902030214 | 31 | 0.0 | 0.0 | 0.00 | 0.00 | 0.00 | 53 | 1068.1 | |
| 20260902024211 | 31 | 0.0 | 0.0 | 0.00 | 0.00 | 0.00 | 53 | 1068.3 | |
| 20260902022207 | 31 | 0.0 | 0.0 | 0.00 | 0.00 | 0.00 | 53 | 1068.3 | |
| 20260902020203 | 31 | 0.0 | 0.0 | 0.00 | 0.00 | 0.00 | 53 | 1068.4 | |
| 20260902014200 | 31 | 0.0 | 0.0 | 0.00 | 0.00 | 0.00 | 53 | 1068.2 | |
| 20260902012156 | 31 | 0.0 | 0.0 | 0.00 | 0.00 | 0.00 | 53 | 1068.4 | |
| 20260902010152 | 31 | 0.0 | 0.0 | 0.00 | 0.00 | 0.00 | 53 | 1068.4 | |
| 20260902004149 | 31 | 0.0 | 0.0 | 0.00 | 0.00 | 0.00 | 53 | 1068.3 | |
| 20260902002145 | 31 | 0.0 | 0.0 | 0.00 | 0.00 | 0.00 | 53 | 1068.2 |